sensor_id;sensor_type;location;lat;lon;timestamp;pressure;altitude;pressure_sealevel;temperature;humidity
70745;BME280;59284;31.390;34.904;2022-08-19T00:00:59;93070.72;;;19.41;100.00
70745;BME280;59284;31.390;34.904;2022-08-19T00:03:35;93054.47;;;19.57;100.00
70745;BME280;59284;31.390;34.904;2022-08-19T00:06:03;93053.06;;;19.42;100.00
70745;BME280;59284;31.390;34.904;2022-08-19T00:08:31;93063.69;;;19.17;100.00
70745;BME280;59284;31.390;34.904;2022-08-19T00:11:01;93079.13;;;19.08;100.00
70745;BME280;59284;31.390;34.904;2022-08-19T00:13:27;93085.84;;;19.20;100.00
70745;BME280;59284;31.390;34.904;2022-08-19T00:15:55;93123.34;;;19.27;100.00
70745;BME280;59284;31.390;34.904;2022-08-19T00:18:21;93313.78;;;19.54;100.00
70745;BME280;59284;31.390;34.904;2022-08-19T00:20:46;93320.16;;;19.32;100.00
70745;BME280;59284;31.390;34.904;2022-08-19T00:23:13;93329.91;;;19.25;100.00
70745;BME280;59284;31.390;34.904;2022-08-19T00:25:41;93339.34;;;19.15;100.00
70745;BME280;59284;31.390;34.904;2022-08-19T00:28:07;93392.66;;;19.19;100.00
70745;BME280;59284;31.390;34.904;2022-08-19T00:30:34;93410.66;;;19.00;100.00
70745;BME280;59284;31.390;34.904;2022-08-19T00:33:00;93430.56;;;19.04;100.00
70745;BME280;59284;31.390;34.904;2022-08-19T00:35:26;93432.47;;;19.11;100.00
70745;BME280;59284;31.390;34.904;2022-08-19T00:37:54;93440.69;;;18.95;100.00
70745;BME280;59284;31.390;34.904;2022-08-19T00:40:21;93451.97;;;19.03;100.00
70745;BME280;59284;31.390;34.904;2022-08-19T00:42:53;93447.13;;;19.26;100.00
70745;BME280;59284;31.390;34.904;2022-08-19T00:45:23;93451.22;;;19.09;100.00
70745;BME280;59284;31.390;34.904;2022-08-19T00:47:49;93456.88;;;19.15;100.00
70745;BME280;59284;31.390;34.904;2022-08-19T00:50:20;93455.41;;;19.31;100.00
70745;BME280;59284;31.390;34.904;2022-08-19T00:52:50;93459.13;;;19.13;100.00
70745;BME280;59284;31.390;34.904;2022-08-19T00:55:24;93534.22;;;19.14;100.00
70745;BME280;59284;31.390;34.904;2022-08-19T00:57:55;93574.34;;;18.93;100.00
70745;BME280;59284;31.390;34.904;2022-08-19T01:00:27;93616.06;;;19.09;100.00
70745;BME280;59284;31.390;34.904;2022-08-19T01:02:53;93643.50;;;19.11;100.00
70745;BME280;59284;31.390;34.904;2022-08-19T01:05:23;93685.16;;;19.06;100.00
70745;BME280;59284;31.390;34.904;2022-08-19T01:07:50;93717.38;;;18.96;100.00
70745;BME280;59284;31.390;34.904;2022-08-19T01:10:25;93737.63;;;18.91;100.00
70745;BME280;59284;31.390;34.904;2022-08-19T01:12:52;93766.50;;;18.84;100.00
70745;BME280;59284;31.390;34.904;2022-08-19T01:15:23;93798.16;;;19.02;100.00
70745;BME280;59284;31.390;34.904;2022-08-19T01:17:52;93816.84;;;18.90;100.00
70745;BME280;59284;31.390;34.904;2022-08-19T01:20:22;93857.75;;;18.87;100.00
70745;BME280;59284;31.390;34.904;2022-08-19T01:22:54;93879.44;;;18.81;100.00
70745;BME280;59284;31.390;34.904;2022-08-19T01:25:24;93928.63;;;18.80;100.00
70745;BME280;59284;31.390;34.904;2022-08-19T01:27:52;93961.03;;;18.91;100.00
70745;BME280;59284;31.390;34.904;2022-08-19T01:30:29;94030.16;;;18.96;100.00
70745;BME280;59284;31.390;34.904;2022-08-19T01:32:57;94059.03;;;18.92;100.00
70745;BME280;59284;31.390;34.904;2022-08-19T01:35:27;94095.28;;;18.79;100.00
70745;BME280;59284;31.390;34.904;2022-08-19T01:37:57;94124.09;;;18.72;100.00
70745;BME280;59284;31.390;34.904;2022-08-19T01:40:29;94223.38;;;18.60;100.00
70745;BME280;59284;31.390;34.904;2022-08-19T01:42:56;95105.72;;;18.58;100.00
70745;BME280;59284;31.390;34.904;2022-08-19T01:45:26;95101.09;;;18.67;100.00
70745;BME280;59284;31.390;34.904;2022-08-19T01:47:55;95102.81;;;18.63;100.00
70745;BME280;59284;31.390;34.904;2022-08-19T01:50:21;95094.94;;;18.75;100.00
70745;BME280;59284;31.390;34.904;2022-08-19T01:52:47;95078.81;;;18.76;100.00
70745;BME280;59284;31.390;34.904;2022-08-19T01:55:18;95064.72;;;18.69;100.00
70745;BME280;59284;31.390;34.904;2022-08-19T01:57:50;95048.56;;;18.55;100.00
70745;BME280;59284;31.390;34.904;2022-08-19T02:00:20;95033.66;;;18.59;100.00
70745;BME280;59284;31.390;34.904;2022-08-19T02:02:47;95024.38;;;18.49;100.00
70745;BME280;59284;31.390;34.904;2022-08-19T02:05:14;95021.06;;;18.64;100.00
70745;BME280;59284;31.390;34.904;2022-08-19T02:07:45;95040.94;;;18.77;100.00
70745;BME280;59284;31.390;34.904;2022-08-19T02:10:15;95015.81;;;18.64;100.00
70745;BME280;59284;31.390;34.904;2022-08-19T02:12:43;94989.91;;;18.78;100.00
70745;BME280;59284;31.390;34.904;2022-08-19T02:15:11;94968.00;;;18.74;100.00
70745;BME280;59284;31.390;34.904;2022-08-19T02:17:39;94963.13;;;18.88;100.00
70745;BME280;59284;31.390;34.904;2022-08-19T02:20:06;94965.34;;;18.86;100.00
70745;BME280;59284;31.390;34.904;2022-08-19T02:22:33;94963.28;;;18.80;100.00
70745;BME280;59284;31.390;34.904;2022-08-19T02:25:10;94972.59;;;18.77;100.00
70745;BME280;59284;31.390;34.904;2022-08-19T02:27:36;94971.06;;;18.76;100.00
70745;BME280;59284;31.390;34.904;2022-08-19T02:30:04;94967.88;;;18.83;100.00
70745;BME280;59284;31.390;34.904;2022-08-19T02:32:33;94975.00;;;18.82;100.00
70745;BME280;59284;31.390;34.904;2022-08-19T02:34:59;94981.91;;;18.75;100.00
70745;BME280;59284;31.390;34.904;2022-08-19T02:37:27;94968.75;;;18.59;100.00
70745;BME280;59284;31.390;34.904;2022-08-19T02:40:11;94972.13;;;18.60;100.00
70745;BME280;59284;31.390;34.904;2022-08-19T02:42:37;94981.88;;;18.59;100.00
70745;BME280;59284;31.390;34.904;2022-08-19T02:45:04;94968.44;;;18.49;100.00
70745;BME280;59284;31.390;34.904;2022-08-19T02:47:31;94994.59;;;18.57;100.00
70745;BME280;59284;31.390;34.904;2022-08-19T02:49:57;95014.19;;;18.60;100.00
70745;BME280;59284;31.390;34.904;2022-08-19T02:52:23;95047.34;;;18.52;100.00
70745;BME280;59284;31.390;34.904;2022-08-19T02:54:50;95065.53;;;18.57;100.00
70745;BME280;59284;31.390;34.904;2022-08-19T02:57:19;95082.28;;;18.53;100.00
70745;BME280;59284;31.390;34.904;2022-08-19T02:59:47;95093.09;;;18.63;100.00
70745;BME280;59284;31.390;34.904;2022-08-19T03:02:13;95082.34;;;18.68;100.00
70745;BME280;59284;31.390;34.904;2022-08-19T03:04:39;95087.38;;;18.73;100.00
70745;BME280;59284;31.390;34.904;2022-08-19T03:07:05;95085.56;;;18.62;100.00
70745;BME280;59284;31.390;34.904;2022-08-19T03:09:30;95088.38;;;18.69;100.00
70745;BME280;59284;31.390;34.904;2022-08-19T03:11:56;95093.63;;;18.69;100.00
70745;BME280;59284;31.390;34.904;2022-08-19T03:14:22;95101.38;;;18.77;100.00
70745;BME280;59284;31.390;34.904;2022-08-19T03:16:51;95099.53;;;18.78;100.00
70745;BME280;59284;31.390;34.904;2022-08-19T03:19:19;95108.41;;;18.85;100.00
70745;BME280;59284;31.390;34.904;2022-08-19T03:21:47;95103.66;;;18.91;100.00
70745;BME280;59284;31.390;34.904;2022-08-19T03:24:14;95159.41;;;18.97;100.00
70745;BME280;59284;31.390;34.904;2022-08-19T03:26:48;95152.41;;;18.88;100.00
70745;BME280;59284;31.390;34.904;2022-08-19T03:29:15;95158.88;;;18.91;100.00
70745;BME280;59284;31.390;34.904;2022-08-19T03:31:43;95164.31;;;18.98;100.00
70745;BME280;59284;31.390;34.904;2022-08-19T03:34:14;95182.59;;;19.07;100.00
70745;BME280;59284;31.390;34.904;2022-08-19T03:36:41;95178.66;;;19.13;100.00
70745;BME280;59284;31.390;34.904;2022-08-19T03:39:07;95184.88;;;19.20;100.00
70745;BME280;59284;31.390;34.904;2022-08-19T03:41:37;95177.59;;;19.29;100.00
70745;BME280;59284;31.390;34.904;2022-08-19T03:44:04;95168.19;;;19.40;100.00
70745;BME280;59284;31.390;34.904;2022-08-19T03:46:32;95166.50;;;19.48;100.00
70745;BME280;59284;31.390;34.904;2022-08-19T03:48:59;95164.06;;;19.55;100.00
70745;BME280;59284;31.390;34.904;2022-08-19T03:51:37;95148.56;;;19.66;100.00
70745;BME280;59284;31.390;34.904;2022-08-19T03:54:11;95150.28;;;19.89;100.00
70745;BME280;59284;31.390;34.904;2022-08-19T03:56:42;95147.09;;;19.96;100.00
70745;BME280;59284;31.390;34.904;2022-08-19T03:59:11;95138.34;;;20.07;100.00
70745;BME280;59284;31.390;34.904;2022-08-19T04:01:38;95133.28;;;20.14;100.00
70745;BME280;59284;31.390;34.904;2022-08-19T04:04:05;95122.34;;;20.28;100.00
70745;BME280;59284;31.390;34.904;2022-08-19T04:06:33;95127.31;;;20.33;100.00
70745;BME280;59284;31.390;34.904;2022-08-19T04:09:01;95109.13;;;20.44;100.00
70745;BME280;59284;31.390;34.904;2022-08-19T04:11:34;95048.94;;;20.46;100.00
70745;BME280;59284;31.390;34.904;2022-08-19T04:14:18;95065.75;;;20.57;100.00
70745;BME280;59284;31.390;34.904;2022-08-19T04:16:45;95079.50;;;20.66;100.00
70745;BME280;59284;31.390;34.904;2022-08-19T04:19:12;95086.44;;;20.74;100.00
70745;BME280;59284;31.390;34.904;2022-08-19T04:21:38;95099.31;;;20.94;100.00
70745;BME280;59284;31.390;34.904;2022-08-19T04:24:04;95095.81;;;20.90;100.00
70745;BME280;59284;31.390;34.904;2022-08-19T04:26:33;95096.56;;;21.07;100.00
70745;BME280;59284;31.390;34.904;2022-08-19T04:29:05;95100.66;;;21.23;100.00
70745;BME280;59284;31.390;34.904;2022-08-19T04:31:32;95097.88;;;21.35;100.00
70745;BME280;59284;31.390;34.904;2022-08-19T04:34:04;95084.56;;;21.28;100.00
70745;BME280;59284;31.390;34.904;2022-08-19T04:36:34;95071.97;;;21.41;100.00
70745;BME280;59284;31.390;34.904;2022-08-19T04:39:05;95075.88;;;21.28;100.00
70745;BME280;59284;31.390;34.904;2022-08-19T04:41:52;95065.97;;;21.44;100.00
70745;BME280;59284;31.390;34.904;2022-08-19T04:44:37;95054.31;;;21.45;100.00
70745;BME280;59284;31.390;34.904;2022-08-19T04:47:03;95058.72;;;21.60;100.00
70745;BME280;59284;31.390;34.904;2022-08-19T04:49:31;95043.53;;;21.53;100.00
70745;BME280;59284;31.390;34.904;2022-08-19T04:51:58;95051.56;;;21.83;100.00
70745;BME280;59284;31.390;34.904;2022-08-19T04:54:24;95029.59;;;21.76;100.00
70745;BME280;59284;31.390;34.904;2022-08-19T04:56:52;95027.34;;;21.78;100.00
70745;BME280;59284;31.390;34.904;2022-08-19T04:59:19;95005.88;;;22.02;100.00
70745;BME280;59284;31.390;34.904;2022-08-19T05:01:46;94968.91;;;22.31;100.00
70745;BME280;59284;31.390;34.904;2022-08-19T05:04:18;94916.44;;;22.33;100.00
70745;BME280;59284;31.390;34.904;2022-08-19T05:06:44;94875.72;;;22.38;100.00
70745;BME280;59284;31.390;34.904;2022-08-19T05:09:10;94819.88;;;22.40;100.00
70745;BME280;59284;31.390;34.904;2022-08-19T05:11:37;94782.72;;;22.25;100.00
70745;BME280;59284;31.390;34.904;2022-08-19T05:14:07;94697.88;;;22.81;100.00
70745;BME280;59284;31.390;34.904;2022-08-19T05:16:33;94644.56;;;22.76;100.00
70745;BME280;59284;31.390;34.904;2022-08-19T05:19:00;94638.38;;;22.58;100.00
70745;BME280;59284;31.390;34.904;2022-08-19T05:21:45;94606.22;;;22.52;100.00
70745;BME280;59284;31.390;34.904;2022-08-19T05:24:30;94614.03;;;22.85;100.00
70745;BME280;59284;31.390;34.904;2022-08-19T05:27:00;94624.09;;;22.62;100.00
70745;BME280;59284;31.390;34.904;2022-08-19T05:29:29;94650.19;;;22.71;100.00
70745;BME280;59284;31.390;34.904;2022-08-19T05:31:58;94685.28;;;22.61;100.00
70745;BME280;59284;31.390;34.904;2022-08-19T05:34:25;94672.28;;;22.96;100.00
70745;BME280;59284;31.390;34.904;2022-08-19T05:36:54;94671.34;;;22.67;100.00
70745;BME280;59284;31.390;34.904;2022-08-19T05:39:25;94650.72;;;22.90;100.00
70745;BME280;59284;31.390;34.904;2022-08-19T05:41:55;94630.78;;;23.11;100.00
70745;BME280;59284;31.390;34.904;2022-08-19T05:44:26;94585.28;;;22.80;100.00
70745;BME280;59284;31.390;34.904;2022-08-19T05:46:57;94481.16;;;23.38;100.00
70745;BME280;59284;31.390;34.904;2022-08-19T05:49:24;94467.03;;;22.84;100.00
70745;BME280;59284;31.390;34.904;2022-08-19T05:51:51;94498.44;;;22.96;100.00
70745;BME280;59284;31.390;34.904;2022-08-19T05:54:17;94433.81;;;23.12;100.00
70745;BME280;59284;31.390;34.904;2022-08-19T05:56:49;94403.59;;;23.23;100.00
70745;BME280;59284;31.390;34.904;2022-08-19T05:59:17;94351.06;;;23.71;100.00
70745;BME280;59284;31.390;34.904;2022-08-19T06:01:45;94349.56;;;23.35;100.00
70745;BME280;59284;31.390;34.904;2022-08-19T06:04:12;94250.00;;;23.76;100.00
70745;BME280;59284;31.390;34.904;2022-08-19T06:06:45;94226.16;;;23.80;100.00
70745;BME280;59284;31.390;34.904;2022-08-19T06:09:15;94215.53;;;23.87;100.00
70745;BME280;59284;31.390;34.904;2022-08-19T06:11:50;94110.41;;;23.69;100.00
70745;BME280;59284;31.390;34.904;2022-08-19T06:14:24;93552.41;;;24.66;100.00
70745;BME280;59284;31.390;34.904;2022-08-19T06:16:50;93515.72;;;24.22;100.00
70745;BME280;59284;31.390;34.904;2022-08-19T06:19:19;93509.97;;;24.66;100.00
70745;BME280;59284;31.390;34.904;2022-08-19T06:21:47;93487.63;;;24.87;100.00
70745;BME280;59284;31.390;34.904;2022-08-19T06:24:15;93459.47;;;24.54;100.00
70745;BME280;59284;31.390;34.904;2022-08-19T06:26:50;93454.00;;;24.41;100.00
70745;BME280;59284;31.390;34.904;2022-08-19T06:29:20;93447.63;;;24.78;100.00
70745;BME280;59284;31.390;34.904;2022-08-19T06:31:48;93440.41;;;24.98;100.00
70745;BME280;59284;31.390;34.904;2022-08-19T06:34:17;93419.63;;;25.13;100.00
70745;BME280;59284;31.390;34.904;2022-08-19T06:36:46;93418.97;;;25.25;100.00
70745;BME280;59284;31.390;34.904;2022-08-19T06:39:22;93426.94;;;25.41;100.00
70745;BME280;59284;31.390;34.904;2022-08-19T06:41:53;93432.63;;;25.59;100.00
70745;BME280;59284;31.390;34.904;2022-08-19T06:44:25;93418.38;;;25.33;100.00
70745;BME280;59284;31.390;34.904;2022-08-19T06:46:52;93427.00;;;25.37;100.00
70745;BME280;59284;31.390;34.904;2022-08-19T06:49:18;93428.44;;;25.58;100.00
70745;BME280;59284;31.390;34.904;2022-08-19T06:51:46;93418.50;;;25.78;100.00
70745;BME280;59284;31.390;34.904;2022-08-19T06:54:13;93404.53;;;25.42;100.00
70745;BME280;59284;31.390;34.904;2022-08-19T06:56:39;93407.78;;;25.33;100.00
70745;BME280;59284;31.390;34.904;2022-08-19T06:59:11;93394.91;;;25.80;100.00
70745;BME280;59284;31.390;34.904;2022-08-19T07:01:50;93191.56;;;26.67;100.00
70745;BME280;59284;31.390;34.904;2022-08-19T07:04:19;93187.31;;;26.07;100.00
70745;BME280;59284;31.390;34.904;2022-08-19T07:06:49;93180.31;;;26.51;100.00
70745;BME280;59284;31.390;34.904;2022-08-19T07:09:17;93205.44;;;27.09;100.00
70745;BME280;59284;31.390;34.904;2022-08-19T07:11:50;93240.31;;;26.52;100.00
70745;BME280;59284;31.390;34.904;2022-08-19T07:14:19;93240.75;;;26.75;100.00
70745;BME280;59284;31.390;34.904;2022-08-19T07:16:49;93256.69;;;26.37;100.00
70745;BME280;59284;31.390;34.904;2022-08-19T07:19:19;93249.66;;;26.94;100.00
70745;BME280;59284;31.390;34.904;2022-08-19T07:21:48;93287.84;;;26.37;100.00
70745;BME280;59284;31.390;34.904;2022-08-19T07:24:15;93278.50;;;26.95;100.00
70745;BME280;59284;31.390;34.904;2022-08-19T07:26:42;93270.31;;;26.65;100.00
70745;BME280;59284;31.390;34.904;2022-08-19T07:29:09;93286.69;;;27.01;100.00
70745;BME280;59284;31.390;34.904;2022-08-19T07:31:36;93297.22;;;26.67;100.00
70745;BME280;59284;31.390;34.904;2022-08-19T07:34:07;93346.94;;;27.33;100.00
70745;BME280;59284;31.390;34.904;2022-08-19T07:36:36;93417.31;;;26.53;100.00
70745;BME280;59284;31.390;34.904;2022-08-19T07:39:09;93391.97;;;27.65;100.00
70745;BME280;59284;31.390;34.904;2022-08-19T07:41:35;93410.31;;;27.97;100.00
70745;BME280;59284;31.390;34.904;2022-08-19T07:44:03;93711.31;;;26.89;100.00
70745;BME280;59284;31.390;34.904;2022-08-19T07:46:36;93805.88;;;27.42;100.00
70745;BME280;59284;31.390;34.904;2022-08-19T07:49:04;93892.50;;;27.31;100.00
70745;BME280;59284;31.390;34.904;2022-08-19T07:51:31;93944.97;;;28.14;100.00
70745;BME280;59284;31.390;34.904;2022-08-19T07:53:57;94025.72;;;27.47;100.00
70745;BME280;59284;31.390;34.904;2022-08-19T07:56:23;94057.75;;;27.79;100.00
70745;BME280;59284;31.390;34.904;2022-08-19T07:58:52;94083.13;;;27.67;100.00
70745;BME280;59284;31.390;34.904;2022-08-19T08:01:26;94136.91;;;28.02;100.00
70745;BME280;59284;31.390;34.904;2022-08-19T08:03:54;94173.56;;;28.14;100.00
70745;BME280;59284;31.390;34.904;2022-08-19T08:06:39;94211.03;;;28.42;100.00
70745;BME280;59284;31.390;34.904;2022-08-19T08:09:31;94220.22;;;28.06;100.00
70745;BME280;59284;31.390;34.904;2022-08-19T08:12:12;94235.06;;;28.23;100.00
70745;BME280;59284;31.390;34.904;2022-08-19T08:14:47;94239.34;;;28.72;100.00
70745;BME280;59284;31.390;34.904;2022-08-19T08:17:15;94248.59;;;28.32;100.00
70745;BME280;59284;31.390;34.904;2022-08-19T08:19:42;94266.69;;;27.65;100.00
70745;BME280;59284;31.390;34.904;2022-08-19T08:22:10;94256.31;;;28.46;100.00
70745;BME280;59284;31.390;34.904;2022-08-19T08:25:13;94258.50;;;28.15;100.00
70745;BME280;59284;31.390;34.904;2022-08-19T08:27:40;94266.63;;;28.80;100.00
70745;BME280;59284;31.390;34.904;2022-08-19T08:30:11;94257.81;;;27.92;100.00
70745;BME280;59284;31.390;34.904;2022-08-19T08:32:38;94263.97;;;28.64;100.00
70745;BME280;59284;31.390;34.904;2022-08-19T08:35:07;94262.81;;;28.45;100.00
70745;BME280;59284;31.390;34.904;2022-08-19T08:37:38;94263.25;;;28.60;100.00
70745;BME280;59284;31.390;34.904;2022-08-19T08:43:19;94269.38;;;29.08;100.00
70745;BME280;59284;31.390;34.904;2022-08-19T08:54:41;94272.50;;;29.52;100.00
70745;BME280;59284;31.390;34.904;2022-08-19T08:59:57;94271.63;;;29.42;100.00
70745;BME280;59284;31.390;34.904;2022-08-19T09:02:25;94278.16;;;29.86;100.00
70745;BME280;59284;31.390;34.904;2022-08-19T09:04:53;94278.16;;;29.99;100.00
70745;BME280;59284;31.390;34.904;2022-08-19T09:07:49;94266.78;;;29.66;100.00
70745;BME280;59284;31.390;34.904;2022-08-19T09:10:38;94280.88;;;30.24;100.00
70745;BME280;59284;31.390;34.904;2022-08-19T09:16:16;94288.09;;;29.85;100.00
70745;BME280;59284;31.390;34.904;2022-08-19T09:18:51;94283.84;;;30.01;100.00
70745;BME280;59284;31.390;34.904;2022-08-19T09:21:21;94288.16;;;29.05;100.00
70745;BME280;59284;31.390;34.904;2022-08-19T09:23:51;94282.09;;;29.81;100.00
70745;BME280;59284;31.390;34.904;2022-08-19T09:26:20;94283.81;;;29.11;100.00
70745;BME280;59284;31.390;34.904;2022-08-19T09:28:47;94278.25;;;29.66;100.00
70745;BME280;59284;31.390;34.904;2022-08-19T09:31:16;94278.22;;;29.54;100.00
70745;BME280;59284;31.390;34.904;2022-08-19T09:33:42;94282.13;;;29.94;100.00
70745;BME280;59284;31.390;34.904;2022-08-19T09:36:16;94293.06;;;30.41;100.00
70745;BME280;59284;31.390;34.904;2022-08-19T09:38:42;94306.66;;;30.72;100.00
70745;BME280;59284;31.390;34.904;2022-08-19T09:41:19;94304.34;;;30.20;100.00
70745;BME280;59284;31.390;34.904;2022-08-19T09:43:49;94299.69;;;30.74;100.00
70745;BME280;59284;31.390;34.904;2022-08-19T09:46:19;94308.91;;;30.48;100.00
70745;BME280;59284;31.390;34.904;2022-08-19T09:48:47;94315.91;;;30.96;100.00
70745;BME280;59284;31.390;34.904;2022-08-19T09:51:17;94319.34;;;30.30;100.00
70745;BME280;59284;31.390;34.904;2022-08-19T09:53:45;94302.13;;;31.32;100.00
70745;BME280;59284;31.390;34.904;2022-08-19T09:56:12;94306.63;;;32.77;100.00
70745;BME280;59284;31.390;34.904;2022-08-19T09:58:38;94302.41;;;33.92;100.00
70745;BME280;59284;31.390;34.904;2022-08-19T10:01:07;94300.91;;;34.00;100.00
70745;BME280;59284;31.390;34.904;2022-08-19T10:03:34;94303.00;;;33.60;100.00
70745;BME280;59284;31.390;34.904;2022-08-19T10:06:03;94302.56;;;33.52;100.00
70745;BME280;59284;31.390;34.904;2022-08-19T10:08:32;94299.59;;;33.77;100.00
70745;BME280;59284;31.390;34.904;2022-08-19T10:10:59;94292.75;;;34.45;100.00
70745;BME280;59284;31.390;34.904;2022-08-19T10:13:28;94288.19;;;34.01;100.00
70745;BME280;59284;31.390;34.904;2022-08-19T10:16:02;94284.91;;;33.78;100.00
70745;BME280;59284;31.390;34.904;2022-08-19T10:18:28;94287.03;;;32.68;100.00
70745;BME280;59284;31.390;34.904;2022-08-19T10:23:59;94298.56;;;33.08;100.00
70745;BME280;59284;31.390;34.904;2022-08-19T10:26:34;94278.47;;;34.21;100.00
70745;BME280;59284;31.390;34.904;2022-08-19T10:29:03;94292.53;;;34.16;100.00
70745;BME280;59284;31.390;34.904;2022-08-19T10:31:33;94285.03;;;35.37;100.00
70745;BME280;59284;31.390;34.904;2022-08-19T10:34:00;94287.34;;;34.64;100.00
70745;BME280;59284;31.390;34.904;2022-08-19T10:36:29;94277.44;;;34.01;100.00
70745;BME280;59284;31.390;34.904;2022-08-19T10:38:57;94281.78;;;35.56;100.00
70745;BME280;59284;31.390;34.904;2022-08-19T10:41:42;94278.72;;;35.16;100.00
70745;BME280;59284;31.390;34.904;2022-08-19T10:44:12;94275.63;;;33.98;100.00
70745;BME280;59284;31.390;34.904;2022-08-19T10:46:42;94275.41;;;34.88;100.00
70745;BME280;59284;31.390;34.904;2022-08-19T10:49:14;94270.34;;;34.39;100.00
70745;BME280;59284;31.390;34.904;2022-08-19T10:51:41;94259.06;;;34.59;100.00
70745;BME280;59284;31.390;34.904;2022-08-19T10:54:26;94269.69;;;34.95;100.00
70745;BME280;59284;31.390;34.904;2022-08-19T10:57:12;94258.50;;;35.82;100.00
70745;BME280;59284;31.390;34.904;2022-08-19T10:59:38;94266.41;;;35.24;100.00
70745;BME280;59284;31.390;34.904;2022-08-19T11:02:07;94257.56;;;35.85;100.00
70745;BME280;59284;31.390;34.904;2022-08-19T11:04:35;94272.81;;;37.05;100.00
70745;BME280;59284;31.390;34.904;2022-08-19T11:07:02;94263.72;;;36.88;100.00
70745;BME280;59284;31.390;34.904;2022-08-19T11:09:29;94263.19;;;36.11;100.00
70745;BME280;59284;31.390;34.904;2022-08-19T11:11:55;94267.75;;;32.29;100.00
70745;BME280;59284;31.390;34.904;2022-08-19T11:14:23;94263.19;;;35.35;100.00
70745;BME280;59284;31.390;34.904;2022-08-19T11:16:52;94251.91;;;34.47;100.00
70745;BME280;59284;31.390;34.904;2022-08-19T11:19:21;94263.66;;;34.08;100.00
70745;BME280;59284;31.390;34.904;2022-08-19T11:21:49;94255.31;;;34.06;100.00
70745;BME280;59284;31.390;34.904;2022-08-19T11:24:19;94256.19;;;34.21;100.00
70745;BME280;59284;31.390;34.904;2022-08-19T11:26:47;94254.06;;;36.67;100.00
70745;BME280;59284;31.390;34.904;2022-08-19T11:29:20;94252.31;;;34.13;100.00
70745;BME280;59284;31.390;34.904;2022-08-19T11:31:49;94256.19;;;32.41;100.00
70745;BME280;59284;31.390;34.904;2022-08-19T11:34:17;94250.47;;;33.01;100.00
70745;BME280;59284;31.390;34.904;2022-08-19T11:36:45;94244.53;;;32.66;100.00
70745;BME280;59284;31.390;34.904;2022-08-19T11:39:15;94247.88;;;35.17;100.00
70745;BME280;59284;31.390;34.904;2022-08-19T11:41:41;94252.94;;;34.91;100.00
70745;BME280;59284;31.390;34.904;2022-08-19T11:44:08;94256.78;;;36.23;100.00
70745;BME280;59284;31.390;34.904;2022-08-19T11:46:36;94261.41;;;37.36;100.00
70745;BME280;59284;31.390;34.904;2022-08-19T11:49:03;94256.97;;;35.67;100.00
70745;BME280;59284;31.390;34.904;2022-08-19T11:51:32;94246.97;;;37.39;100.00
70745;BME280;59284;31.390;34.904;2022-08-19T11:54:00;94247.91;;;36.67;100.00
70745;BME280;59284;31.390;34.904;2022-08-19T11:56:27;94248.84;;;39.83;100.00
70745;BME280;59284;31.390;34.904;2022-08-19T11:58:54;94249.75;;;39.63;100.00
70745;BME280;59284;31.390;34.904;2022-08-19T12:01:23;94263.06;;;42.53;100.00
70745;BME280;59284;31.390;34.904;2022-08-19T12:03:50;94261.19;;;41.39;100.00
70745;BME280;59284;31.390;34.904;2022-08-19T12:06:23;94250.91;;;40.38;100.00
70745;BME280;59284;31.390;34.904;2022-08-19T12:08:51;94248.44;;;40.23;100.00
70745;BME280;59284;31.390;34.904;2022-08-19T12:11:17;94248.25;;;35.72;100.00
70745;BME280;59284;31.390;34.904;2022-08-19T12:13:43;94251.81;;;39.26;100.00
70745;BME280;59284;31.390;34.904;2022-08-19T12:16:17;94251.88;;;37.61;100.00
70745;BME280;59284;31.390;34.904;2022-08-19T12:18:44;94250.34;;;39.30;100.00
70745;BME280;59284;31.390;34.904;2022-08-19T12:21:18;94253.44;;;38.70;100.00
70745;BME280;59284;31.390;34.904;2022-08-19T12:23:47;94252.03;;;38.49;100.00
70745;BME280;59284;31.390;34.904;2022-08-19T12:26:13;94247.47;;;38.97;100.00
70745;BME280;59284;31.390;34.904;2022-08-19T12:28:39;94251.94;;;35.98;100.00
70745;BME280;59284;31.390;34.904;2022-08-19T12:31:07;94245.38;;;37.33;100.00
70745;BME280;59284;31.390;34.904;2022-08-19T12:33:34;94248.63;;;38.85;100.00
70745;BME280;59284;31.390;34.904;2022-08-19T12:36:03;94251.94;;;40.51;100.00
70745;BME280;59284;31.390;34.904;2022-08-19T12:38:33;94249.44;;;40.87;100.00
70745;BME280;59284;31.390;34.904;2022-08-19T12:41:00;94260.00;;;41.86;100.00
70745;BME280;59284;31.390;34.904;2022-08-19T12:43:29;94244.25;;;39.47;100.00
70745;BME280;59284;31.390;34.904;2022-08-19T12:45:55;94245.72;;;41.64;100.00
70745;BME280;59284;31.390;34.904;2022-08-19T12:48:26;94248.03;;;39.66;100.00
70745;BME280;59284;31.390;34.904;2022-08-19T12:50:52;94244.97;;;40.39;100.00
70745;BME280;59284;31.390;34.904;2022-08-19T12:53:30;94246.97;;;40.89;100.00
70745;BME280;59284;31.390;34.904;2022-08-19T12:55:57;94241.25;;;40.09;100.00
70745;BME280;59284;31.390;34.904;2022-08-19T12:58:25;94245.50;;;39.51;100.00
70745;BME280;59284;31.390;34.904;2022-08-19T13:00:52;94245.16;;;41.19;100.00
70745;BME280;59284;31.390;34.904;2022-08-19T13:03:17;94248.75;;;42.42;96.83
70745;BME280;59284;31.390;34.904;2022-08-19T13:05:44;94247.81;;;39.69;100.00
70745;BME280;59284;31.390;34.904;2022-08-19T13:08:10;94241.19;;;39.92;100.00
70745;BME280;59284;31.390;34.904;2022-08-19T13:10:37;94239.47;;;38.83;100.00
70745;BME280;59284;31.390;34.904;2022-08-19T13:13:07;94232.97;;;41.42;100.00